Time;durP1;ratioP1;P1;durP2;ratioP2;P2;SDS_P1;SDS_P2;PMS_P1;PMS_P2;Temp;Humidity;BMP_temperature;BMP_pressure;BME280_temperature;BME280_humidity;BME280_pressure;Samples;Min_cycle;Max_cycle;Signal;HPM_P1;HPM_P2
2022/10/30 00:01:33;;;;;;;6.13;3.47;;;;;;;18.12;67.32;101281.84;5014405;28;20689;-81
2022/10/30 00:03:59;;;;;;;7.87;4.40;;;;;;;18.12;66.25;101268.63;5015375;28;20203;-80
2022/10/30 00:06:26;;;;;;;8.10;3.93;;;;;;;18.14;65.66;101288.78;5014821;28;20233;-80
2022/10/30 00:08:53;;;;;;;9.93;4.03;;;;;;;18.21;66.22;101295.53;5015345;28;20204;-80
2022/10/30 00:11:20;;;;;;;7.70;3.57;;;;;;;18.13;65.16;101275.63;5014653;28;20211;-81
2022/10/30 00:13:46;;;;;;;9.30;4.20;;;;;;;18.02;65.37;101313.00;5015162;28;20674;-79
2022/10/30 00:16:13;;;;;;;7.10;4.20;;;;;;;18.08;65.27;101315.44;5015448;28;20235;-80
2022/10/30 00:18:40;;;;;;;8.00;4.37;;;;;;;18.11;65.25;101311.81;5015352;28;20231;-80
2022/10/30 00:21:10;;;;;;;7.43;3.77;;;;;;;18.15;64.90;101316.91;5015772;28;20211;-81
2022/10/30 00:23:36;;;;;;;10.83;4.17;;;;;;;18.17;66.81;101261.38;5015305;28;20207;-80
2022/10/30 00:26:06;;;;;;;5.47;3.57;;;;;;;18.11;67.63;101208.75;5015678;28;20235;-80
2022/10/30 00:28:33;;;;;;;9.77;4.20;;;;;;;18.04;67.27;101195.78;5015373;28;20691;-80
2022/10/30 00:31:00;;;;;;;7.93;3.93;;;;;;;18.02;64.56;101204.69;5015258;28;20407;-81
2022/10/30 00:33:27;;;;;;;7.13;3.87;;;;;;;18.07;64.24;101252.91;5015488;28;20216;-81
2022/10/30 00:35:53;;;;;;;11.13;4.73;;;;;;;18.15;65.04;101272.00;5015643;28;20238;-80
2022/10/30 00:38:19;;;;;;;9.67;4.80;;;;;;;18.15;64.73;101268.50;5015261;28;20227;-81
2022/10/30 00:40:46;;;;;;;6.07;3.80;;;;;;;18.16;63.08;101294.00;5015002;28;20209;-80
2022/10/30 00:43:41;;;;;;;12.70;3.77;;;;;;;18.29;63.88;101323.47;5015896;28;20209;-81
2022/10/30 00:46:18;;;;;;;8.70;4.03;;;;;;;18.32;62.88;101355.94;4968893;28;20235;-80
2022/10/30 00:48:51;;;;;;;5.93;4.07;;;;;;;18.33;63.60;101336.50;5016122;28;20210;-80
2022/10/30 00:51:18;;;;;;;7.73;4.23;;;;;;;18.31;63.69;101334.84;5016214;28;20220;-80
2022/10/30 00:53:46;;;;;;;11.87;3.77;;;;;;;18.34;63.78;101332.13;5016232;28;20212;-80
2022/10/30 00:56:17;;;;;;;7.10;4.20;;;;;;;18.33;63.67;101328.59;5016006;28;20791;-79
2022/10/30 00:58:52;;;;;;;8.17;3.60;;;;;;;18.33;64.10;101307.44;5015253;28;20226;-80
2022/10/30 01:01:22;;;;;;;7.03;4.13;;;;;;;18.34;64.34;101284.53;5015340;28;20225;-80
2022/10/30 01:03:53;;;;;;;11.43;3.83;;;;;;;18.30;64.93;101275.00;5015479;28;20697;-79
2022/10/30 01:06:19;;;;;;;6.30;3.67;;;;;;;18.31;65.15;101256.41;5019596;28;20237;-80
2022/10/30 01:08:47;;;;;;;7.57;3.57;;;;;;;18.23;65.34;101234.69;5019065;28;20199;-80
2022/10/30 01:11:13;;;;;;;9.43;4.20;;;;;;;18.20;66.41;101225.13;5018399;28;20231;-80
2022/10/30 01:13:42;;;;;;;7.87;3.40;;;;;;;18.20;66.00;101196.06;5019579;28;20214;-81
2022/10/30 01:16:26;;;;;;;12.90;3.80;;;;;;;18.18;66.67;101174.09;5019210;28;20228;-80
2022/10/30 01:19:02;;;;;;;10.47;4.37;;;;;;;18.16;65.37;101205.03;5019177;28;20791;-80
2022/10/30 01:21:41;;;;;;;9.30;3.67;;;;;;;18.15;64.76;101258.78;5019646;28;20208;-80
2022/10/30 01:24:34;;;;;;;6.27;4.03;;;;;;;18.19;63.70;101268.31;5019453;28;20226;-80
2022/10/30 01:27:12;;;;;;;6.30;3.47;;;;;;;18.24;64.67;101295.44;5018696;28;20243;-80
2022/10/30 01:29:52;;;;;;;7.63;3.90;;;;;;;18.25;64.06;101298.94;5019375;28;20214;-80
2022/10/30 01:32:35;;;;;;;7.37;3.60;;;;;;;18.25;63.99;101297.19;5019272;28;20204;-80
2022/10/30 01:35:07;;;;;;;9.73;3.90;;;;;;;18.31;64.08;101301.34;5018970;28;20206;-80
2022/10/30 01:37:39;;;;;;;6.90;3.90;;;;;;;18.31;64.30;101297.84;5018940;28;20224;-80
2022/10/30 01:40:09;;;;;;;8.40;4.13;;;;;;;18.24;64.86;101281.38;5018084;28;20259;-78
2022/10/30 01:42:44;;;;;;;6.57;3.53;;;;;;;18.12;66.41;101243.06;5018281;28;20212;-79
2022/10/30 01:45:15;;;;;;;6.43;3.53;;;;;;;18.09;67.61;101158.59;5018599;28;20211;-79
2022/10/30 01:47:57;;;;;;;8.93;4.47;;;;;;;18.10;67.30;101156.84;5017907;28;20234;-80
2022/10/30 01:50:34;;;;;;;13.40;4.83;;;;;;;18.04;66.18;101176.44;5017865;28;20203;-80
2022/10/30 01:53:07;;;;;;;7.23;4.00;;;;;;;18.04;67.34;101166.72;5018188;28;20212;-80
2022/10/30 01:55:42;;;;;;;7.90;4.40;;;;;;;18.03;66.58;101167.63;5018101;28;20270;-80
2022/10/30 01:58:19;;;;;;;9.00;3.53;;;;;;;18.06;67.84;101143.75;5018059;28;20412;-81
2022/10/30 02:00:50;;;;;;;6.57;3.73;;;;;;;17.97;67.04;101183.72;5017769;28;20211;-80
2022/10/30 02:03:18;;;;;;;7.97;4.13;;;;;;;18.03;65.46;101209.88;5018349;28;20198;-80
2022/10/30 02:05:48;;;;;;;10.17;4.40;;;;;;;18.00;68.33;101141.34;5017923;28;20206;-80
2022/10/30 02:08:15;;;;;;;5.57;3.70;;;;;;;17.89;67.51;101116.25;5018323;28;20203;-80
2022/10/30 02:10:43;;;;;;;10.37;4.60;;;;;;;17.89;65.51;101153.22;5017716;28;20222;-80
2022/10/30 02:13:09;;;;;;;7.33;3.57;;;;;;;17.89;67.05;101166.44;5019399;28;20203;-80
2022/10/30 02:15:37;;;;;;;5.20;3.40;;;;;;;17.86;68.40;101133.94;5017892;28;20207;-79
2022/10/30 02:18:04;;;;;;;6.53;3.67;;;;;;;17.87;65.15;101158.56;5017678;28;20215;-80
2022/10/30 02:20:32;;;;;;;5.93;4.07;;;;;;;17.91;66.75;101172.53;5017324;28;20717;-80
2022/10/30 02:22:58;;;;;;;7.57;3.47;;;;;;;17.94;67.55;101183.84;5017237;28;20604;-80
2022/10/30 02:25:25;;;;;;;9.13;4.10;;;;;;;17.88;67.04;101133.91;5018204;28;20202;-79
2022/10/30 02:27:51;;;;;;;7.20;3.77;;;;;;;17.90;68.25;101145.25;5016956;28;20234;-79
2022/10/30 02:30:18;;;;;;;15.73;4.70;;;;;;;17.84;69.29;101119.09;5016281;28;20209;-79
2022/10/30 02:32:44;;;;;;;6.63;3.83;;;;;;;17.84;71.04;101058.34;5017357;28;20665;-79
2022/10/30 02:35:11;;;;;;;10.13;4.20;;;;;;;17.80;71.72;100998.56;5017220;28;20213;-80
2022/10/30 02:37:39;;;;;;;9.60;4.10;;;;;;;17.73;69.79;101028.81;5016404;28;20229;-79
2022/10/30 02:40:07;;;;;;;6.70;3.80;;;;;;;17.72;69.97;101057.00;5019603;28;20646;-80
2022/10/30 02:42:33;;;;;;;9.17;4.30;;;;;;;17.64;69.98;101070.50;5020876;28;20209;-77
2022/10/30 02:45:00;;;;;;;7.93;3.53;;;;;;;17.58;71.79;101038.16;5021001;28;20215;-80
2022/10/30 02:47:28;;;;;;;8.80;3.80;;;;;;;17.47;72.65;101002.50;5017151;28;20234;-80
2022/10/30 02:49:54;;;;;;;7.13;3.93;;;;;;;17.44;73.23;100946.31;5015646;28;20586;-80
2022/10/30 02:52:21;;;;;;;6.27;4.20;;;;;;;17.37;71.99;100953.63;5015831;28;20215;-80
2022/10/30 02:54:48;;;;;;;7.50;3.70;;;;;;;17.38;73.56;100934.25;5016175;28;20207;-80
2022/10/30 02:57:15;;;;;;;7.53;4.10;;;;;;;17.36;72.29;100948.41;5015753;28;20504;-80
2022/10/30 02:59:41;;;;;;;8.73;3.90;;;;;;;17.32;72.05;100975.84;5015663;28;20235;-79
2022/10/30 03:02:08;;;;;;;5.47;3.67;;;;;;;17.34;71.30;101000.38;5015273;28;20214;-80
2022/10/30 03:04:36;;;;;;;6.60;3.43;;;;;;;17.40;72.20;100987.84;5016266;28;20207;-79
2022/10/30 03:07:02;;;;;;;7.43;4.27;;;;;;;17.51;72.38;100986.56;5015597;28;20231;-80
2022/10/30 03:09:29;;;;;;;4.83;3.47;;;;;;;17.53;73.00;100964.44;5015190;28;20210;-80
2022/10/30 03:11:57;;;;;;;7.83;3.90;;;;;;;17.52;72.52;100972.41;5015786;28;20207;-79
2022/10/30 03:14:23;;;;;;;7.20;4.23;;;;;;;17.53;73.17;100958.31;5015789;28;20577;-79
2022/10/30 03:16:51;;;;;;;7.60;4.53;;;;;;;17.52;73.92;100949.53;5016307;28;20610;-80
2022/10/30 03:19:17;;;;;;;16.80;4.87;;;;;;;17.53;73.51;100937.19;5016785;28;20662;-80
2022/10/30 03:21:44;;;;;;;7.17;4.13;;;;;;;17.54;74.31;100928.34;5016796;28;20588;-79
2022/10/30 03:24:10;;;;;;;7.93;4.10;;;;;;;17.44;74.48;100923.44;5016518;28;20208;-80
2022/10/30 03:26:37;;;;;;;6.10;4.47;;;;;;;17.46;74.54;100904.88;5016305;28;20717;-80
2022/10/30 03:29:05;;;;;;;12.23;4.27;;;;;;;17.51;75.92;100887.09;5016838;28;20208;-80
2022/10/30 03:31:32;;;;;;;5.53;4.20;;;;;;;17.50;75.91;100860.75;5016505;28;20217;-79
2022/10/30 03:33:58;;;;;;;7.73;4.03;;;;;;;17.51;74.98;100878.34;5016669;28;20203;-79
2022/10/30 03:36:26;;;;;;;8.10;3.90;;;;;;;17.51;75.33;100879.19;5016335;28;20239;-80
2022/10/30 03:38:52;;;;;;;14.77;5.13;;;;;;;17.49;75.24;100881.03;5016454;28;20207;-80
2022/10/30 03:41:18;;;;;;;6.57;3.90;;;;;;;17.49;74.71;100893.38;5015929;28;20213;-80
2022/10/30 03:43:45;;;;;;;9.30;3.93;;;;;;;17.45;74.77;100911.09;5015913;28;20207;-79
2022/10/30 03:46:13;;;;;;;8.07;4.20;;;;;;;17.46;75.03;100907.53;5016727;28;20232;-80
2022/10/30 03:48:39;;;;;;;12.80;4.33;;;;;;;17.38;73.88;100952.72;5016819;28;20211;-79
2022/10/30 03:51:06;;;;;;;8.50;4.13;;;;;;;17.26;72.64;100992.75;5015578;28;20698;-79
2022/10/30 03:53:32;;;;;;;14.73;4.40;;;;;;;17.34;74.42;100966.94;5016245;28;20208;-80
2022/10/30 03:56:01;;;;;;;7.07;4.47;;;;;;;17.33;75.39;100925.66;5015547;28;20231;-80
2022/10/30 03:58:28;;;;;;;7.97;3.83;;;;;;;17.35;76.02;100894.78;5016475;28;20217;-80
2022/10/30 04:00:54;;;;;;;12.37;4.63;;;;;;;17.36;76.44;100861.31;5015779;28;20238;-80
2022/10/30 04:03:22;;;;;;;4.63;4.00;;;;;;;17.25;74.11;100925.09;5016130;28;20234;-80
2022/10/30 04:05:50;;;;;;;8.20;3.70;;;;;;;17.25;74.26;100930.38;5015897;28;20214;-80
2022/10/30 04:08:17;;;;;;;10.97;5.10;;;;;;;17.26;74.01;100939.97;5015671;28;20239;-80
2022/10/30 04:10:44;;;;;;;7.23;4.07;;;;;;;17.23;73.77;100959.44;5015321;28;20689;-80
2022/10/30 04:13:12;;;;;;;4.90;4.03;;;;;;;17.15;74.43;100945.69;5015881;28;20207;-80
2022/10/30 04:15:39;;;;;;;6.47;4.47;;;;;;;17.11;75.39;100920.34;5014890;28;20617;-79
2022/10/30 04:18:06;;;;;;;10.13;4.03;;;;;;;17.05;75.16;100912.66;5016193;28;20233;-80
2022/10/30 04:20:34;;;;;;;8.27;4.33;;;;;;;16.96;75.63;100900.69;5015277;28;20230;-80
2022/10/30 04:23:02;;;;;;;8.33;4.10;;;;;;;16.87;75.72;100890.50;5016110;28;20207;-79
2022/10/30 04:25:29;;;;;;;5.30;4.17;;;;;;;16.87;76.10;100882.59;5014551;28;20689;-80
2022/10/30 04:27:56;;;;;;;9.10;4.07;;;;;;;16.86;76.54;100862.41;5013669;28;20233;-80
2022/10/30 04:30:23;;;;;;;7.10;4.17;;;;;;;16.90;76.67;100848.16;5013820;28;20200;-80
2022/10/30 04:32:52;;;;;;;12.37;4.97;;;;;;;16.84;76.58;100864.22;5014762;28;20237;-80
2022/10/30 04:35:20;;;;;;;6.53;4.17;;;;;;;16.82;76.78;100851.09;5015551;28;20220;-80
2022/10/30 04:37:53;;;;;;;7.43;4.40;;;;;;;16.74;76.66;100849.66;5016109;28;20229;-79
2022/10/30 04:40:20;;;;;;;7.20;4.60;;;;;;;16.71;77.76;100832.19;5014668;28;20261;-78
2022/10/30 04:42:47;;;;;;;9.27;4.40;;;;;;;16.67;77.87;100809.50;5016806;28;20211;-80
2022/10/30 04:45:13;;;;;;;10.20;4.40;;;;;;;16.55;77.49;100826.63;5016464;28;20209;-80
2022/10/30 04:47:40;;;;;;;9.67;4.33;;;;;;;16.49;77.83;100821.59;5015821;28;20234;-80
2022/10/30 04:50:06;;;;;;;9.73;4.27;;;;;;;16.49;78.93;100789.97;5015236;28;20202;-80
2022/10/30 04:52:33;;;;;;;9.17;4.43;;;;;;;16.43;78.28;100791.06;5015125;28;20207;-80
2022/10/30 04:55:01;;;;;;;7.57;4.67;;;;;;;16.45;79.22;100769.91;5011378;28;20207;-79
2022/10/30 04:57:27;;;;;;;17.93;5.10;;;;;;;16.43;79.20;100766.47;4996664;28;20231;-80
2022/10/30 04:59:54;;;;;;;9.67;4.23;;;;;;;16.36;77.27;100773.75;4997121;28;20282;-78
2022/10/30 05:02:20;;;;;;;12.73;4.03;;;;;;;16.32;77.52;100816.94;4996352;28;20218;-80
2022/10/30 05:04:47;;;;;;;6.27;4.10;;;;;;;16.39;77.53;100839.53;4996114;28;20211;-80
2022/10/30 05:07:13;;;;;;;8.77;4.50;;;;;;;16.46;78.75;100792.72;4995888;28;20234;-79
2022/10/30 05:09:40;;;;;;;9.33;4.53;;;;;;;16.47;79.02;100786.50;4996468;28;20200;-79
2022/10/30 05:12:08;;;;;;;6.10;3.70;;;;;;;16.45;79.18;100781.31;4995655;28;20215;-80
2022/10/30 05:14:34;;;;;;;8.63;4.20;;;;;;;16.41;78.97;100765.66;4995791;28;20569;-80
2022/10/30 05:17:00;;;;;;;6.97;4.13;;;;;;;16.37;79.27;100756.16;4995158;28;20231;-80
2022/10/30 05:19:27;;;;;;;6.63;3.87;;;;;;;16.27;77.78;100774.97;4995466;28;20218;-80
2022/10/30 05:21:53;;;;;;;6.07;4.40;;;;;;;16.24;77.48;100809.31;4994410;28;20207;-80
2022/10/30 05:24:20;;;;;;;7.80;3.90;;;;;;;16.23;74.92;100893.66;4995417;28;20236;-80
2022/10/30 05:26:46;;;;;;;6.67;4.03;;;;;;;16.33;75.95;100889.78;4995763;28;20230;-80
2022/10/30 05:29:14;;;;;;;9.67;4.27;;;;;;;16.42;76.98;100854.34;4995871;28;20222;-79
2022/10/30 05:31:41;;;;;;;9.93;4.10;;;;;;;16.41;76.37;100857.88;4995535;28;20215;-80
2022/10/30 05:34:07;;;;;;;8.20;3.93;;;;;;;16.36;75.29;100902.84;4995786;28;20215;-80
2022/10/30 05:36:33;;;;;;;7.47;3.70;;;;;;;16.37;72.65;100944.13;4995326;28;20227;-80
2022/10/30 05:39:01;;;;;;;6.93;4.30;;;;;;;16.41;73.68;100956.25;4995550;28;20211;-80
2022/10/30 05:41:28;;;;;;;6.23;3.90;;;;;;;16.50;73.18;100989.31;4994263;28;20231;-80
2022/10/30 05:43:54;;;;;;;8.27;3.90;;;;;;;16.50;74.42;100965.59;4996070;28;20211;-80
2022/10/30 05:46:22;;;;;;;6.67;4.47;;;;;;;16.44;73.77;100963.19;4996530;28;20721;-81
2022/10/30 05:48:48;;;;;;;4.87;4.30;;;;;;;16.41;72.22;100994.91;4995462;28;20222;-80
2022/10/30 05:51:15;;;;;;;5.40;4.03;;;;;;;16.38;73.82;101016.94;4997529;28;20203;-80
2022/10/30 05:53:41;;;;;;;5.20;4.07;;;;;;;16.41;74.83;100981.72;4999009;28;20207;-80
2022/10/30 05:56:08;;;;;;;8.50;4.67;;;;;;;16.44;75.12;100942.09;4998368;28;20724;-80
2022/10/30 05:58:34;;;;;;;6.70;4.40;;;;;;;16.43;74.13;100956.19;4999024;28;20214;-79
2022/10/30 06:01:05;;;;;;;7.63;3.80;;;;;;;16.44;75.06;100952.66;4998326;28;20223;-79
2022/10/30 06:03:33;;;;;;;6.97;4.17;;;;;;;16.40;75.30;100932.59;4997822;28;20208;-80
2022/10/30 06:05:59;;;;;;;7.13;4.10;;;;;;;16.44;75.95;100918.41;4998046;28;20231;-79
2022/10/30 06:08:26;;;;;;;5.47;3.90;;;;;;;16.43;76.47;100882.41;4997842;28;20211;-80
2022/10/30 06:10:54;;;;;;;6.40;4.10;;;;;;;16.38;75.74;100894.91;4997438;28;20323;-79
2022/10/30 06:13:20;;;;;;;7.60;4.50;;;;;;;16.36;76.12;100900.22;4998007;28;20559;-80
2022/10/30 06:15:47;;;;;;;7.27;4.53;;;;;;;16.33;75.58;100905.59;4997431;28;20212;-78
2022/10/30 06:18:13;;;;;;;6.73;4.90;;;;;;;16.33;75.42;100912.63;4996765;28;20211;-80
2022/10/30 06:20:41;;;;;;;7.00;4.53;;;;;;;16.22;75.99;100921.78;4997526;28;20234;-80
2022/10/30 06:23:09;;;;;;;8.17;4.13;;;;;;;16.19;75.83;100905.22;4997243;28;20211;-81
2022/10/30 06:25:36;;;;;;;8.70;4.70;;;;;;;16.13;76.10;100918.59;4996615;28;20211;-80
2022/10/30 06:28:05;;;;;;;8.40;4.03;;;;;;;16.12;76.68;100911.63;4997044;28;20204;-81
2022/10/30 06:30:32;;;;;;;10.03;4.33;;;;;;;16.08;77.42;100877.47;4996192;28;20204;-81
2022/10/30 06:32:59;;;;;;;10.00;4.30;;;;;;;16.05;77.88;100867.06;4996381;28;20212;-81
2022/10/30 06:35:26;;;;;;;7.53;4.37;;;;;;;16.05;78.50;100810.88;4996468;28;20233;-81
2022/10/30 06:37:55;;;;;;;4.87;3.77;;;;;;;16.04;77.63;100841.63;4997550;28;20231;-81
2022/10/30 06:40:22;;;;;;;4.17;3.63;;;;;;;15.97;76.71;100878.75;4997387;28;20230;-80
2022/10/30 06:42:50;;;;;;;5.77;4.30;;;;;;;15.94;77.00;100885.00;4997783;28;20205;-81
2022/10/30 06:45:19;;;;;;;9.37;4.73;;;;;;;15.93;77.02;100903.47;4997976;28;20287;-81
2022/10/30 06:47:47;;;;;;;5.97;3.80;;;;;;;15.91;77.72;100893.00;5002162;28;20247;-80
2022/10/30 06:50:16;;;;;;;9.90;4.77;;;;;;;15.92;78.19;100873.66;4998264;28;20211;-79
2022/10/30 06:52:43;;;;;;;9.97;3.83;;;;;;;15.87;76.51;100880.84;4997939;28;20211;-79
2022/10/30 06:55:11;;;;;;;8.93;4.97;;;;;;;15.68;76.57;100933.22;4997933;28;20211;-81
2022/10/30 06:57:38;;;;;;;5.73;4.00;;;;;;;15.42;76.67;100948.06;4997649;28;20231;-81
2022/10/30 07:00:06;;;;;;;7.60;4.27;;;;;;;15.35;76.78;100930.72;4997716;28;20597;-81
2022/10/30 07:02:33;;;;;;;7.77;4.90;;;;;;;15.29;77.89;100902.00;4996491;28;20203;-81
2022/10/30 07:04:59;;;;;;;6.07;3.73;;;;;;;15.26;77.88;100892.44;4996717;28;20215;-81
2022/10/30 07:07:26;;;;;;;12.03;4.90;;;;;;;15.26;78.80;100858.25;4997494;28;20223;-80
2022/10/30 07:09:52;;;;;;;8.20;4.30;;;;;;;15.31;78.63;100865.13;4997022;28;20214;-80
2022/10/30 07:12:20;;;;;;;7.63;4.73;;;;;;;15.19;77.59;100895.31;4997016;28;20213;-81
2022/10/30 07:14:46;;;;;;;6.27;4.37;;;;;;;15.25;78.57;100888.06;4996885;28;20561;-81
2022/10/30 07:17:15;;;;;;;7.43;5.00;;;;;;;15.40;79.26;100854.28;4996610;28;20221;-80
2022/10/30 07:19:41;;;;;;;7.07;4.30;;;;;;;15.48;79.80;100829.47;4998037;28;20203;-80
2022/10/30 07:22:07;;;;;;;5.17;4.37;;;;;;;15.55;79.95;100824.00;4996326;28;20885;-80
2022/10/30 07:24:34;;;;;;;8.43;4.93;;;;;;;15.47;81.23;100803.22;4996732;28;20199;-80
2022/10/30 07:27:00;;;;;;;11.37;5.50;;;;;;;15.45;80.97;100795.34;4996739;28;20237;-80
2022/10/30 07:29:28;;;;;;;6.13;4.90;;;;;;;15.39;79.24;100829.75;4996764;28;20199;-81
2022/10/30 07:31:54;;;;;;;6.93;4.60;;;;;;;15.48;80.15;100844.41;4994361;28;20327;-81
2022/10/30 07:34:21;;;;;;;7.90;4.50;;;;;;;15.54;80.84;100824.91;4996730;28;20203;-80
2022/10/30 07:36:47;;;;;;;5.43;4.10;;;;;;;15.54;80.80;100817.00;4996991;28;20215;-81
2022/10/30 07:39:14;;;;;;;5.80;4.83;;;;;;;15.55;81.74;100806.44;4996347;28;20207;-81
2022/10/30 07:41:40;;;;;;;11.07;4.33;;;;;;;15.54;81.63;100783.69;4994763;28;20227;-80
2022/10/30 07:44:06;;;;;;;7.20;4.40;;;;;;;15.66;83.38;100754.31;4995534;28;20214;-80
2022/10/30 07:46:34;;;;;;;8.03;4.37;;;;;;;15.68;82.92;100749.00;4995398;28;20238;-81
2022/10/30 07:49:02;;;;;;;6.73;4.57;;;;;;;15.72;82.83;100758.50;4996237;28;20217;-82
2022/10/30 07:51:29;;;;;;;6.87;5.13;;;;;;;15.80;83.01;100753.84;4996348;28;20677;-81
2022/10/30 07:53:56;;;;;;;10.43;4.50;;;;;;;15.86;83.66;100739.63;4997346;28;20198;-80
2022/10/30 07:56:22;;;;;;;9.03;4.40;;;;;;;15.87;82.91;100754.47;4996246;28;20734;-80
2022/10/30 07:58:50;;;;;;;4.77;4.20;;;;;;;15.88;83.67;100738.63;4996302;28;20214;-80
2022/10/30 08:01:17;;;;;;;9.40;4.50;;;;;;;15.87;83.74;100736.06;4995633;28;20230;-80
2022/10/30 08:03:44;;;;;;;10.23;4.77;;;;;;;15.87;83.40;100744.81;4996666;28;20240;-80
2022/10/30 08:06:11;;;;;;;9.07;4.80;;;;;;;15.87;83.16;100757.97;4996035;28;20235;-81
2022/10/30 08:08:37;;;;;;;6.17;4.37;;;;;;;15.87;83.18;100762.38;4996142;28;20208;-81
2022/10/30 08:11:04;;;;;;;9.10;4.63;;;;;;;15.87;82.89;100775.53;4995617;28;20218;-80
2022/10/30 08:13:30;;;;;;;9.17;4.67;;;;;;;15.94;84.84;100750.72;4996248;28;20765;-80
2022/10/30 08:15:57;;;;;;;5.23;3.90;;;;;;;16.06;87.91;100667.78;4996206;28;20219;-81
2022/10/30 08:18:24;;;;;;;6.27;4.73;;;;;;;16.16;87.72;100640.19;4996438;28;20212;-80
2022/10/30 08:20:52;;;;;;;6.83;4.27;;;;;;;16.28;88.52;100613.34;4995636;28;20224;-79
2022/10/30 08:23:20;;;;;;;6.13;4.30;;;;;;;16.28;86.39;100652.84;4996495;28;20219;-80
2022/10/30 08:25:47;;;;;;;6.30;4.40;;;;;;;16.34;86.28;100678.13;5006160;28;20698;-80
2022/10/30 08:28:14;;;;;;;8.53;4.23;;;;;;;16.46;87.25;100653.91;5001678;28;20204;-80
2022/10/30 08:30:40;;;;;;;13.63;5.07;;;;;;;16.53;86.89;100666.84;4986425;28;20672;-78
2022/10/30 08:33:10;;;;;;;9.30;4.50;;;;;;;16.51;85.64;100671.31;4986622;28;20200;-80
2022/10/30 08:35:36;;;;;;;7.20;4.10;;;;;;;16.59;86.75;100678.00;4986920;28;20203;-80
2022/10/30 08:38:04;;;;;;;9.93;4.60;;;;;;;16.71;88.11;100641.50;4985626;28;20587;-79
2022/10/30 08:40:31;;;;;;;11.83;5.03;;;;;;;16.78;87.65;100645.63;4984982;28;20571;-79
2022/10/30 08:42:58;;;;;;;5.80;4.13;;;;;;;16.72;85.60;100686.25;4987870;28;20203;-81
2022/10/30 08:45:25;;;;;;;10.30;4.40;;;;;;;16.58;83.58;100765.88;4987051;28;20200;-80
2022/10/30 08:47:57;;;;;;;9.70;4.70;;;;;;;16.61;84.95;100757.88;4986432;28;20238;-80
2022/10/30 08:50:23;;;;;;;7.60;4.73;;;;;;;16.70;84.96;100739.97;4986387;28;20212;-81
2022/10/30 08:52:50;;;;;;;13.50;5.17;;;;;;;16.72;83.85;100749.53;4985887;28;20207;-80
2022/10/30 08:55:17;;;;;;;10.50;4.57;;;;;;;16.73;82.84;100796.06;4987717;28;20211;-80
2022/10/30 08:57:44;;;;;;;8.17;4.47;;;;;;;16.70;83.03;100812.00;4986074;28;20219;-80
2022/10/30 09:00:11;;;;;;;11.60;4.17;;;;;;;16.67;81.21;100857.78;4985486;28;20204;-80
2022/10/30 09:02:39;;;;;;;10.20;4.90;;;;;;;16.78;83.46;100827.53;4986463;28;20725;-81
2022/10/30 09:05:07;;;;;;;8.53;5.27;;;;;;;16.75;80.03;100875.09;4985548;28;20675;-80
2022/10/30 09:07:34;;;;;;;7.17;4.90;;;;;;;16.90;81.07;100902.69;4984487;28;20226;-80
2022/10/30 09:10:01;;;;;;;7.43;4.67;;;;;;;16.93;79.98;100906.09;4984551;28;20208;-79
2022/10/30 09:12:31;;;;;;;8.40;5.13;;;;;;;17.00;79.84;100936.56;4980542;28;20221;-80
2022/10/30 09:14:58;;;;;;;6.77;4.97;;;;;;;17.11;80.80;100906.31;4975972;28;20614;-81
2022/10/30 09:17:24;;;;;;;7.23;5.00;;;;;;;17.09;79.73;100921.34;4976725;28;20225;-81
2022/10/30 09:19:51;;;;;;;11.10;4.30;;;;;;;16.99;79.84;100952.47;4977231;28;20220;-80
2022/10/30 09:22:17;;;;;;;13.00;4.77;;;;;;;17.05;77.34;100987.38;4977728;28;20587;-81
2022/10/30 09:24:44;;;;;;;15.47;5.17;;;;;;;17.07;79.17;100995.25;4977498;28;20659;-79
2022/10/30 09:27:10;;;;;;;9.07;4.97;;;;;;;17.10;77.80;100970.50;4980633;28;20232;-81
2022/10/30 09:29:40;;;;;;;9.47;4.30;;;;;;;17.20;76.87;101074.78;4982067;28;20227;-81
2022/10/30 09:32:08;;;;;;;12.07;5.10;;;;;;;17.28;77.53;101051.59;4981045;28;20208;-80
2022/10/30 09:34:36;;;;;;;9.77;4.40;;;;;;;17.23;77.83;101016.63;4979705;28;20215;-81
2022/10/30 09:37:02;;;;;;;7.73;5.20;;;;;;;17.24;76.34;101042.97;4980173;28;20296;-79
2022/10/30 09:39:29;;;;;;;8.23;4.47;;;;;;;17.34;76.37;101035.53;4980454;28;20219;-79
2022/10/30 09:42:26;;;;;;;7.63;4.63;;;;;;;17.45;74.21;101074.75;4979810;28;20233;-81
2022/10/30 09:45:12;;;;;;;13.83;4.87;;;;;;;17.37;73.93;101039.88;4979405;28;20242;-81
2022/10/30 09:47:47;;;;;;;9.40;3.90;;;;;;;17.45;75.61;101065.03;4979947;28;20239;-82
2022/10/30 09:50:25;;;;;;;7.37;4.10;;;;;;;17.56;77.16;101048.81;4979353;28;20208;-80
2022/10/30 09:53:03;;;;;;;9.03;4.20;;;;;;;17.61;73.72;101078.53;4979234;28;20204;-81
2022/10/30 09:55:40;;;;;;;6.77;4.13;;;;;;;17.72;73.68;101120.38;4978982;28;20209;-79
2022/10/30 09:58:22;;;;;;;7.47;4.60;;;;;;;17.89;72.67;101166.44;4980671;28;20205;-80
2022/10/30 10:00:53;;;;;;;7.83;4.40;;;;;;;18.03;72.39;101198.47;4979668;28;20208;-79
2022/10/30 10:03:37;;;;;;;11.80;5.10;;;;;;;18.02;71.32;101252.25;5001665;28;20231;-80
2022/10/30 10:06:05;;;;;;;7.23;4.50;;;;;;;18.02;72.45;101218.75;4986545;28;20222;-79
2022/10/30 10:08:37;;;;;;;10.20;4.13;;;;;;;17.98;71.82;101192.53;4987914;28;20200;-80
2022/10/30 10:11:09;;;;;;;7.50;4.70;;;;;;;17.93;73.10;101142.47;4988442;28;20201;-81
2022/10/30 10:13:40;;;;;;;7.37;3.93;;;;;;;17.96;71.04;101182.00;4980955;28;20292;-81
2022/10/30 10:16:14;;;;;;;9.90;4.87;;;;;;;17.94;71.39;101189.13;4977965;28;20252;-80
2022/10/30 10:18:46;;;;;;;7.07;4.07;;;;;;;17.96;71.66;101210.22;4978321;28;20204;-81
2022/10/30 10:21:20;;;;;;;13.07;4.80;;;;;;;18.07;69.88;101221.22;4977711;28;20291;-80
2022/10/30 10:23:49;;;;;;;11.30;4.40;;;;;;;18.16;69.67;101252.59;4978166;28;20290;-80
2022/10/30 10:26:26;;;;;;;6.83;4.03;;;;;;;18.15;69.98;101234.13;4978297;28;20746;-79
2022/10/30 10:29:14;;;;;;;10.43;4.87;;;;;;;18.25;68.89;101278.69;4978137;28;20217;-81
2022/10/30 10:31:51;;;;;;;7.87;4.70;;;;;;;18.42;67.02;101317.69;4977023;28;20205;-81
2022/10/30 10:34:33;;;;;;;14.87;5.67;;;;;;;18.58;67.65;101338.25;4978076;28;20216;-80
2022/10/30 10:37:09;;;;;;;6.03;4.10;;;;;;;18.66;66.00;101350.25;4978183;28;20236;-78
2022/10/30 10:39:49;;;;;;;7.43;4.30;;;;;;;18.78;65.75;101388.59;4978930;28;20230;-80
2022/10/30 10:42:24;;;;;;;9.90;4.70;;;;;;;18.89;65.28;101416.47;4978906;28;20233;-81
2022/10/30 10:45:07;;;;;;;4.87;3.90;;;;;;;19.03;65.05;101441.50;4982057;28;20219;-81
2022/10/30 10:47:54;;;;;;;7.60;4.27;;;;;;;19.04;65.00;101423.81;4978180;28;20776;-81
2022/10/30 10:50:25;;;;;;;8.63;4.03;;;;;;;19.06;65.96;101403.44;4978039;28;20214;-79
2022/10/30 10:52:57;;;;;;;6.70;4.30;;;;;;;19.12;65.52;101389.97;4978705;28;20207;-81
2022/10/30 10:55:28;;;;;;;5.90;3.87;;;;;;;19.20;65.48;101382.59;4978509;28;20670;-81
2022/10/30 10:57:59;;;;;;;8.40;5.23;;;;;;;19.23;66.27;101348.06;4978788;28;20226;-80
2022/10/30 11:00:27;;;;;;;9.87;4.37;;;;;;;19.25;65.89;101348.88;4978041;28;20212;-81
2022/10/30 11:03:00;;;;;;;7.23;4.77;;;;;;;19.22;66.10;101334.88;4977876;28;20569;-81
2022/10/30 11:05:35;;;;;;;12.57;4.83;;;;;;;19.18;67.12;101312.97;4978110;28;20216;-81
2022/10/30 11:08:09;;;;;;;7.83;3.70;;;;;;;19.20;64.25;101328.78;4978012;28;20213;-80
2022/10/30 11:10:35;;;;;;;6.70;4.33;;;;;;;19.23;62.94;101376.34;4977144;28;20698;-80
2022/10/30 11:13:02;;;;;;;9.63;4.47;;;;;;;19.34;62.78;101436.78;4977622;28;20205;-80
2022/10/30 11:15:40;;;;;;;11.77;4.23;;;;;;;19.39;61.10;101440.97;4978899;28;20215;-80
2022/10/30 11:18:09;;;;;;;7.00;3.87;;;;;;;19.50;61.18;101495.28;4978399;28;20213;-79
2022/10/30 11:20:44;;;;;;;10.37;3.97;;;;;;;19.53;62.61;101481.94;4977659;28;20216;-82
2022/10/30 11:23:39;;;;;;;13.00;4.27;;;;;;;19.60;60.81;101462.22;4977471;28;20707;-82
2022/10/30 11:26:34;;;;;;;11.60;3.47;;;;;;;19.70;60.43;101513.94;4977228;28;20233;-80
2022/10/30 11:29:12;;;;;;;7.43;4.27;;;;;;;19.73;60.34;101505.88;4978200;28;20209;-81
2022/10/30 11:31:40;;;;;;;8.33;4.30;;;;;;;19.81;60.68;101519.66;4976851;28;20338;-80
2022/10/30 11:34:23;;;;;;;8.03;4.73;;;;;;;19.78;60.64;101476.53;4977979;28;20208;-80